Terminal Aerodrome Forecast
Issued by NWS

Home | Current Version | Previous Version | Text Only | Print | Product List | Glossary On
Versions: 1 2 3 4 5 6 7 8 9 10 11 12 13
000
FTUS43 KMQT 252324
TAFCMX
TAF
KCMX 252324Z 2600/2624 06005KT P6SM SKC
     FM260600 01005KT P6SM SKC
     FM261300 02009KT P6SM SCT030
     FM262200 01009KT P6SM FEW035=

USA.gov is the U.S. government's official web portal to all federal, state and local government web resources and services.